Time;durP1;ratioP1;P1;durP2;ratioP2;P2;SDS_P1;SDS_P2;PMS_P1;PMS_P2;Temp;Humidity;BMP_temperature;BMP_pressure;BME280_temperature;BME280_humidity;BME280_pressure;Samples;Min_cycle;Max_cycle;Signal;HPM_P1;HPM_P2
2022/08/03 00:01:06;;;;;;;15.77;6.95;;;24.50;50.50;;;;;;5071915;28;20286;-73
2022/08/03 00:03:32;;;;;;;16.67;7.45;;;24.50;50.30;;;;;;5070008;28;20052;-74
2022/08/03 00:05:58;;;;;;;16.40;8.80;;;24.50;50.40;;;;;;5071301;28;20013;-73
2022/08/03 00:08:24;;;;;;;18.63;8.07;;;24.50;50.00;;;;;;5067777;28;20016;-74
2022/08/03 00:10:50;;;;;;;19.05;7.05;;;24.50;50.20;;;;;;5052404;28;20039;-74
2022/08/03 00:13:15;;;;;;;12.07;6.65;;;24.50;50.40;;;;;;5068199;28;20029;-74
2022/08/03 00:15:42;;;;;;;14.13;7.18;;;24.50;50.50;;;;;;5070597;28;20032;-74
2022/08/03 00:18:08;;;;;;;11.02;5.72;;;24.50;50.30;;;;;;5070162;28;20512;-75
2022/08/03 00:20:34;;;;;;;12.15;6.15;;;24.50;51.00;;;;;;5069156;28;20369;-75
2022/08/03 00:23:00;;;;;;;12.27;6.13;;;24.50;50.40;;;;;;5069197;28;20078;-75
2022/08/03 00:25:26;;;;;;;14.15;6.03;;;24.50;50.70;;;;;;5066109;28;20024;-74
2022/08/03 00:27:52;;;;;;;11.18;6.10;;;24.50;50.60;;;;;;5067034;28;20020;-74
2022/08/03 00:30:18;;;;;;;11.75;5.93;;;24.50;50.60;;;;;;5063530;28;20035;-74
2022/08/03 00:32:43;;;;;;;12.80;5.93;;;24.50;50.50;;;;;;5064868;28;20043;-74
2022/08/03 00:35:10;;;;;;;10.50;4.80;;;24.50;50.60;;;;;;5067411;28;20029;-74
2022/08/03 00:37:36;;;;;;;13.02;5.30;;;24.50;50.50;;;;;;5068733;28;20393;-74
2022/08/03 00:40:02;;;;;;;10.65;4.90;;;24.50;50.60;;;;;;5030889;28;20035;-74
2022/08/03 00:42:28;;;;;;;9.18;4.85;;;24.50;50.40;;;;;;5069887;28;20023;-75
2022/08/03 00:44:54;;;;;;;9.50;4.80;;;24.50;50.50;;;;;;5060779;28;20025;-75
2022/08/03 00:47:20;;;;;;;9.45;4.65;;;24.50;50.60;;;;;;5063638;28;20032;-73
2022/08/03 00:49:45;;;;;;;8.13;4.10;;;24.50;50.70;;;;;;5063603;28;20037;-74
2022/08/03 00:52:14;;;;;;;10.45;4.78;;;24.50;50.50;;;;;;5068897;28;20035;-74
2022/08/03 00:54:40;;;;;;;9.57;4.90;;;24.50;50.50;;;;;;5040992;28;20081;-74
2022/08/03 00:57:07;;;;;;;7.18;3.80;;;24.50;50.60;;;;;;5065032;28;20024;-74
2022/08/03 00:59:33;;;;;;;9.82;4.22;;;24.50;50.60;;;;;;5066468;28;20465;-74
2022/08/03 01:01:59;;;;;;;8.43;3.80;;;24.50;50.70;;;;;;5042163;28;20079;-74
2022/08/03 01:04:25;;;;;;;7.45;4.00;;;24.50;50.50;;;;;;5045269;28;20043;-74
2022/08/03 01:07:01;;;;;;;7.68;4.00;;;24.50;50.80;;;;;;5065899;28;20336;-74
2022/08/03 01:09:37;;;;;;;8.13;3.72;;;24.50;50.80;;;;;;5065952;28;21708;-74
2022/08/03 01:12:28;;;;;;;7.38;3.85;;;24.50;50.70;;;;;;5063231;28;20125;-74
2022/08/03 01:14:58;;;;;;;8.02;3.47;;;24.50;50.80;;;;;;5042395;28;20020;-74
2022/08/03 01:17:32;;;;;;;7.90;3.53;;;24.50;50.60;;;;;;5065405;28;20477;-75
2022/08/03 01:20:10;;;;;;;8.13;3.42;;;24.50;51.00;;;;;;5067324;28;20103;-75
2022/08/03 01:23:09;;;;;;;10.40;3.47;;;24.50;50.70;;;;;;5061939;28;20432;-75
2022/08/03 01:26:02;;;;;;;6.77;3.87;;;24.50;51.00;;;;;;5066443;28;20476;-75
2022/08/03 01:29:00;;;;;;;8.60;3.40;;;24.50;50.90;;;;;;5067044;28;20271;-75
2022/08/03 01:31:31;;;;;;;10.27;3.83;;;24.50;50.90;;;;;;5066648;28;20024;-75
2022/08/03 01:34:01;;;;;;;7.50;3.22;;;24.50;50.90;;;;;;5064390;28;20060;-75
2022/08/03 01:36:35;;;;;;;6.43;3.42;;;24.50;51.10;;;;;;5062545;28;20036;-75
2022/08/03 01:39:08;;;;;;;5.63;3.05;;;24.50;50.80;;;;;;5064017;28;20449;-75
2022/08/03 01:41:39;;;;;;;10.30;3.95;;;24.50;50.90;;;;;;5064629;28;20025;-75
2022/08/03 01:44:09;;;;;;;7.82;3.38;;;24.50;50.70;;;;;;5060127;28;20040;-75
2022/08/03 01:46:37;;;;;;;6.28;3.45;;;24.50;50.90;;;;;;5065858;28;20037;-74
2022/08/03 01:49:06;;;;;;;6.57;3.03;;;24.50;50.90;;;;;;5065938;28;20025;-74
2022/08/03 01:51:33;;;;;;;7.68;3.40;;;24.50;50.80;;;;;;5059032;28;20431;-73
2022/08/03 01:54:00;;;;;;;5.35;2.90;;;24.50;50.70;;;;;;5061863;28;20403;-74
2022/08/03 01:56:28;;;;;;;5.50;3.35;;;24.50;51.00;;;;;;5066110;28;20026;-74
2022/08/03 01:58:55;;;;;;;6.53;2.92;;;24.50;50.80;;;;;;5060265;28;20024;-74
2022/08/03 02:01:22;;;;;;;6.22;2.83;;;24.50;50.80;;;;;;5062153;28;20024;-74
2022/08/03 02:03:50;;;;;;;6.63;2.67;;;24.40;50.80;;;;;;5064248;28;20107;-74
2022/08/03 02:06:18;;;;;;;5.93;2.83;;;24.50;50.70;;;;;;5066620;28;20050;-74
2022/08/03 02:08:45;;;;;;;6.55;3.22;;;24.50;50.60;;;;;;5046991;28;20487;-74
2022/08/03 02:11:11;;;;;;;8.82;3.15;;;24.50;50.70;;;;;;5066235;28;20029;-74
2022/08/03 02:13:39;;;;;;;6.43;2.70;;;24.40;50.60;;;;;;5063567;28;20032;-74
2022/08/03 02:16:06;;;;;;;9.15;3.10;;;24.50;50.50;;;;;;5046828;28;20035;-74
2022/08/03 02:18:33;;;;;;;5.55;2.90;;;24.50;50.50;;;;;;5058792;28;20052;-74
2022/08/03 02:21:03;;;;;;;4.47;2.75;;;24.40;51.00;;;;;;5043605;28;20021;-73
2022/08/03 02:23:30;;;;;;;4.57;2.88;;;24.40;50.50;;;;;;5062190;28;20017;-74
2022/08/03 02:26:03;;;;;;;6.93;2.90;;;24.40;50.50;;;;;;5061227;28;20108;-73
2022/08/03 02:28:34;;;;;;;7.75;3.17;;;24.40;50.60;;;;;;5061840;28;20021;-74
2022/08/03 02:31:05;;;;;;;5.43;2.40;;;24.50;50.70;;;;;;5062210;28;20531;-75
2022/08/03 02:33:37;;;;;;;5.85;2.70;;;24.50;50.40;;;;;;5048000;28;20029;-74
2022/08/03 02:36:04;;;;;;;3.60;2.53;;;24.50;50.40;;;;;;5059501;28;20027;-74
2022/08/03 02:38:37;;;;;;;7.72;3.22;;;24.50;50.40;;;;;;5064379;28;20060;-74
2022/08/03 02:41:07;;;;;;;6.88;3.10;;;24.50;50.60;;;;;;5058124;28;20493;-74
2022/08/03 02:43:36;;;;;;;5.38;2.80;;;24.50;50.80;;;;;;5059374;28;20469;-74
2022/08/03 02:46:02;;;;;;;5.43;2.85;;;24.50;51.00;;;;;;5059867;28;20028;-73
2022/08/03 02:48:31;;;;;;;5.90;2.80;;;24.50;50.70;;;;;;5062311;28;20032;-73
2022/08/03 02:50:58;;;;;;;6.63;3.33;;;24.50;50.50;;;;;;5061391;28;20032;-73
2022/08/03 02:53:25;;;;;;;5.15;2.75;;;24.50;50.50;;;;;;5059532;28;20082;-73
2022/08/03 02:55:54;;;;;;;6.07;2.70;;;24.50;50.50;;;;;;5065697;28;20067;-74
2022/08/03 02:58:22;;;;;;;3.92;2.45;;;24.50;50.50;;;;;;5062675;28;20029;-74
2022/08/03 03:00:52;;;;;;;6.00;2.72;;;24.50;50.50;;;;;;5062147;28;20120;-74
2022/08/03 03:03:19;;;;;;;5.45;2.67;;;24.50;50.60;;;;;;5060155;28;20023;-74
2022/08/03 03:05:45;;;;;;;5.55;2.80;;;24.50;50.40;;;;;;5065274;28;20483;-74
2022/08/03 03:08:14;;;;;;;6.70;2.60;;;24.50;50.40;;;;;;5066422;28;20074;-74
2022/08/03 03:10:41;;;;;;;7.90;2.90;;;24.50;50.60;;;;;;5066844;28;20485;-73
2022/08/03 03:13:07;;;;;;;6.50;3.10;;;24.50;50.40;;;;;;5070073;28;20066;-73
2022/08/03 03:15:36;;;;;;;7.90;2.90;;;24.40;50.50;;;;;;5064340;28;20484;-74
2022/08/03 03:18:02;;;;;;;5.85;2.75;;;24.40;50.60;;;;;;5066093;28;20064;-73
2022/08/03 03:20:29;;;;;;;5.00;2.85;;;24.40;50.20;;;;;;5065021;28;20028;-74
2022/08/03 03:22:57;;;;;;;4.85;2.70;;;24.40;50.60;;;;;;5070885;28;20027;-74
2022/08/03 03:25:23;;;;;;;5.22;2.78;;;24.40;50.30;;;;;;5066799;28;20054;-73
2022/08/03 03:27:50;;;;;;;7.00;2.92;;;24.40;50.10;;;;;;5072288;28;20024;-74
2022/08/03 03:30:16;;;;;;;7.00;2.50;;;24.40;50.00;;;;;;5068612;28;20024;-74
2022/08/03 03:32:41;;;;;;;5.57;2.70;;;24.40;50.00;;;;;;5059388;28;20055;-74
2022/08/03 03:35:09;;;;;;;4.95;2.85;;;24.40;50.10;;;;;;5063878;28;20021;-74
2022/08/03 03:37:35;;;;;;;6.53;2.70;;;24.40;50.30;;;;;;5062205;28;20038;-74
2022/08/03 03:40:01;;;;;;;5.53;2.85;;;24.40;49.90;;;;;;5068585;28;20074;-74
2022/08/03 03:42:26;;;;;;;4.47;2.45;;;24.40;50.00;;;;;;5071983;28;20060;-73
2022/08/03 03:44:52;;;;;;;5.68;2.63;;;24.40;49.90;;;;;;5067389;28;20032;-74
2022/08/03 03:47:18;;;;;;;4.15;2.28;;;24.40;49.80;;;;;;5057564;28;20109;-74
2022/08/03 03:49:44;;;;;;;4.55;2.53;;;24.40;49.80;;;;;;5068892;28;21561;-73
2022/08/03 03:52:10;;;;;;;8.68;2.58;;;24.40;49.90;;;;;;5069266;28;20021;-74
2022/08/03 03:54:41;;;;;;;4.57;2.38;;;24.40;50.30;;;;;;5067050;28;20028;-74
2022/08/03 03:57:09;;;;;;;4.60;2.45;;;24.40;49.90;;;;;;5067563;28;20423;-74
2022/08/03 03:59:39;;;;;;;6.07;2.70;;;24.40;49.90;;;;;;5069113;28;20401;-74
2022/08/03 04:02:07;;;;;;;5.53;3.20;;;24.40;49.80;;;;;;5068752;28;20052;-74
2022/08/03 04:12:59;;;;;;;4.63;2.78;;;24.40;50.20;;;;;;5070460;28;20100;-74
2022/08/03 04:15:28;;;;;;;7.07;2.53;;;24.40;49.80;;;;;;5065132;28;20145;-74
2022/08/03 04:17:57;;;;;;;6.57;3.03;;;24.40;49.90;;;;;;5069037;28;20031;-73
2022/08/03 04:20:25;;;;;;;7.03;2.70;;;24.40;50.00;;;;;;5068713;28;20029;-74
2022/08/03 04:22:52;;;;;;;4.97;2.90;;;24.40;49.90;;;;;;5045835;28;20781;-74
2022/08/03 04:25:23;;;;;;;6.55;3.05;;;24.40;49.80;;;;;;5063852;28;20024;-74
2022/08/03 04:27:51;;;;;;;4.50;2.70;;;24.40;49.70;;;;;;5066350;28;20050;-74
2022/08/03 04:30:18;;;;;;;6.75;2.80;;;24.40;49.70;;;;;;5068593;28;20413;-74
2022/08/03 04:32:50;;;;;;;7.40;3.00;;;24.40;49.70;;;;;;5065793;28;20025;-74
2022/08/03 04:35:17;;;;;;;7.75;3.38;;;24.40;49.50;;;;;;5068959;28;20047;-74
2022/08/03 04:37:49;;;;;;;6.47;3.08;;;24.40;49.80;;;;;;5064851;28;20140;-74
2022/08/03 04:40:29;;;;;;;6.00;3.25;;;24.40;49.50;;;;;;5069744;28;20080;-75
2022/08/03 04:42:55;;;;;;;;;;;24.40;49.70;;;;;;5065636;28;20108;-74
2022/08/03 04:45:23;;;;;;;5.10;2.97;;;24.40;49.60;;;;;;5065760;28;19935;-74
2022/08/03 04:47:49;;;;;;;7.78;4.85;;;24.40;49.50;;;;;;5044480;28;20028;-74
2022/08/03 04:50:15;;;;;;;7.47;3.90;;;24.40;49.80;;;;;;5070565;28;20104;-74
2022/08/03 04:52:42;;;;;;;13.60;4.15;;;24.40;49.50;;;;;;5062627;28;20032;-75
2022/08/03 04:55:08;;;;;;;11.98;6.70;;;24.40;49.50;;;;;;5063979;28;20442;-74
2022/08/03 04:57:34;;;;;;;9.68;4.65;;;24.40;49.30;;;;;;5058826;28;20480;-74
2022/08/03 04:59:59;;;;;;;15.27;8.32;;;24.40;49.90;;;;;;5062232;28;20082;-74
2022/08/03 05:02:25;;;;;;;14.77;6.65;;;24.40;49.70;;;;;;5059673;28;20062;-74
2022/08/03 05:04:51;;;;;;;11.57;6.18;;;24.40;49.50;;;;;;5066999;28;20021;-74
2022/08/03 05:07:17;;;;;;;13.68;6.97;;;24.40;49.90;;;;;;5067058;28;20111;-74
2022/08/03 05:09:44;;;;;;;12.23;6.70;;;24.40;49.60;;;;;;5065431;28;20039;-74
2022/08/03 05:12:10;;;;;;;11.48;6.50;;;24.40;49.60;;;;;;5064230;28;20029;-73
2022/08/03 05:14:37;;;;;;;15.00;7.82;;;24.40;49.60;;;;;;5068267;28;20023;-75
2022/08/03 05:17:07;;;;;;;14.02;7.22;;;24.40;49.60;;;;;;5069341;28;20017;-73
2022/08/03 05:19:34;;;;;;;14.68;7.95;;;24.40;49.80;;;;;;5067009;28;20085;-73
2022/08/03 05:22:00;;;;;;;11.25;6.20;;;24.40;49.60;;;;;;5048007;28;20040;-73
2022/08/03 05:24:26;;;;;;;12.48;6.82;;;24.40;49.70;;;;;;5061509;28;20377;-73
2022/08/03 05:26:52;;;;;;;12.30;6.55;;;24.40;49.50;;;;;;5057866;28;20024;-73
2022/08/03 05:29:18;;;;;;;13.38;6.43;;;24.40;49.70;;;;;;5062607;28;20017;-72
2022/08/03 05:31:44;;;;;;;13.20;6.53;;;24.40;49.60;;;;;;5063013;28;20040;-73
2022/08/03 05:34:10;;;;;;;10.15;5.28;;;24.40;49.70;;;;;;5061279;28;20389;-73
2022/08/03 05:36:35;;;;;;;12.52;5.57;;;24.40;49.60;;;;;;5061355;28;20149;-72
2022/08/03 05:39:01;;;;;;;9.68;5.38;;;24.30;49.60;;;;;;5061831;28;20084;-73
2022/08/03 05:41:27;;;;;;;9.85;5.70;;;24.40;49.60;;;;;;5043400;28;20028;-73
2022/08/03 05:43:53;;;;;;;9.63;5.38;;;24.40;49.60;;;;;;5060696;28;20032;-73
2022/08/03 05:46:20;;;;;;;9.45;5.55;;;24.40;49.70;;;;;;5061777;28;20512;-73
2022/08/03 05:48:45;;;;;;;11.93;4.97;;;24.40;49.90;;;;;;5064432;28;20063;-73
2022/08/03 05:51:12;;;;;;;10.80;4.38;;;24.40;49.80;;;;;;5067118;28;20051;-73
2022/08/03 05:53:39;;;;;;;10.07;5.35;;;24.40;49.90;;;;;;5068006;28;20036;-73
2022/08/03 05:56:05;;;;;;;10.63;5.47;;;24.40;50.40;;;;;;5062210;28;20107;-73
2022/08/03 05:58:31;;;;;;;12.63;6.97;;;24.40;49.80;;;;;;5065974;28;20173;-73
2022/08/03 06:00:57;;;;;;;11.30;5.50;;;24.40;49.90;;;;;;5065290;28;20476;-73
2022/08/03 06:03:22;;;;;;;9.57;5.15;;;24.40;49.80;;;;;;5067916;28;20031;-74
2022/08/03 06:05:48;;;;;;;9.82;5.45;;;24.40;49.80;;;;;;5061523;28;20013;-74
2022/08/03 06:08:14;;;;;;;10.77;5.30;;;24.50;50.00;;;;;;5064053;28;20150;-74
2022/08/03 06:10:40;;;;;;;8.88;5.30;;;24.50;50.00;;;;;;5064540;28;20033;-73
2022/08/03 06:13:05;;;;;;;12.23;5.28;;;24.50;50.10;;;;;;5060268;28;20039;-73
2022/08/03 06:15:32;;;;;;;10.48;5.30;;;24.50;50.20;;;;;;5066288;28;20480;-73
2022/08/03 06:17:58;;;;;;;8.10;4.47;;;24.50;50.30;;;;;;5066092;28;20047;-73
2022/08/03 06:20:24;;;;;;;9.93;4.80;;;24.50;50.30;;;;;;5062588;28;20369;-73
2022/08/03 06:22:50;;;;;;;8.18;4.70;;;24.50;50.30;;;;;;5066039;28;20021;-73
2022/08/03 06:25:16;;;;;;;8.25;4.50;;;24.50;50.40;;;;;;5060447;28;20086;-74
2022/08/03 06:27:42;;;;;;;8.18;4.60;;;24.50;50.40;;;;;;5065394;28;20028;-74
2022/08/03 06:30:10;;;;;;;12.38;4.78;;;24.50;50.40;;;;;;5061141;28;20021;-75
2022/08/03 06:32:37;;;;;;;17.52;4.93;;;24.60;50.30;;;;;;5063836;28;20017;-74
2022/08/03 06:35:05;;;;;;;11.95;4.82;;;24.60;50.30;;;;;;5065565;28;20029;-73
2022/08/03 06:37:31;;;;;;;15.18;4.85;;;24.60;50.50;;;;;;5031613;28;20032;-73
2022/08/03 06:39:57;;;;;;;12.68;4.72;;;24.60;50.70;;;;;;5049738;28;20031;-72
2022/08/03 06:42:22;;;;;;;9.15;4.53;;;24.60;50.80;;;;;;5061455;28;20053;-73
2022/08/03 06:44:48;;;;;;;14.00;4.70;;;24.60;51.30;;;;;;5052208;28;20427;-73
2022/08/03 06:47:14;;;;;;;14.13;5.00;;;24.60;51.70;;;;;;5054564;28;20021;-73
2022/08/03 06:49:40;;;;;;;10.15;4.90;;;24.70;53.00;;;;;;5053382;28;20040;-73
2022/08/03 06:52:06;;;;;;;10.65;4.93;;;24.70;53.20;;;;;;5062878;28;20187;-73
2022/08/03 06:54:32;;;;;;;12.75;4.97;;;24.70;52.90;;;;;;5074698;28;20029;-73
2022/08/03 06:56:58;;;;;;;12.63;4.53;;;24.70;53.60;;;;;;5054162;28;20029;-75
2022/08/03 06:59:23;;;;;;;18.23;5.57;;;24.70;53.00;;;;;;5054686;28;20108;-73
2022/08/03 07:01:49;;;;;;;13.05;4.40;;;24.80;52.70;;;;;;5055331;28;20055;-74
2022/08/03 07:04:15;;;;;;;14.05;3.97;;;24.80;52.30;;;;;;5053148;28;20025;-74
2022/08/03 07:06:41;;;;;;;13.02;4.10;;;24.90;51.00;;;;;;5060086;28;20100;-73
2022/08/03 07:09:07;;;;;;;11.73;4.57;;;24.80;51.50;;;;;;5033564;28;20033;-72
2022/08/03 07:11:32;;;;;;;13.45;4.40;;;24.90;50.70;;;;;;5054728;28;20028;-75
2022/08/03 07:13:58;;;;;;;12.60;4.03;;;24.90;50.90;;;;;;5054705;28;20041;-74
2022/08/03 07:16:24;;;;;;;12.70;4.75;;;25.00;50.60;;;;;;5054512;28;20532;-75
2022/08/03 07:18:50;;;;;;;16.30;4.95;;;25.00;51.30;;;;;;5037023;28;20037;-75
2022/08/03 07:21:16;;;;;;;12.25;4.85;;;25.00;50.20;;;;;;5054096;28;20117;-75
2022/08/03 07:23:42;;;;;;;9.13;4.10;;;25.00;49.80;;;;;;5036807;28;20033;-75
2022/08/03 07:26:08;;;;;;;8.25;3.25;;;25.00;49.10;;;;;;5036244;28;20091;-75
2022/08/03 07:28:34;;;;;;;9.05;3.30;;;25.10;48.40;;;;;;5054624;28;20505;-75
2022/08/03 07:30:59;;;;;;;8.48;3.10;;;25.30;47.80;;;;;;5055155;28;20044;-76
2022/08/03 07:33:25;;;;;;;11.45;3.40;;;25.30;48.10;;;;;;5038236;28;20104;-75
2022/08/03 07:35:51;;;;;;;7.93;3.47;;;25.20;48.30;;;;;;5059093;28;20029;-75
2022/08/03 07:38:17;;;;;;;9.77;3.15;;;25.20;48.00;;;;;;5053577;28;20135;-75
2022/08/03 07:40:42;;;;;;;8.38;3.28;;;25.30;47.70;;;;;;5053892;28;20037;-75
2022/08/03 07:43:09;;;;;;;6.00;2.78;;;25.50;47.20;;;;;;5054179;28;20107;-75
2022/08/03 07:45:34;;;;;;;9.50;2.70;;;25.60;46.80;;;;;;5052605;28;20060;-75
2022/08/03 07:48:00;;;;;;;6.60;3.00;;;25.50;46.70;;;;;;5019879;28;20033;-74
2022/08/03 07:50:26;;;;;;;8.88;3.00;;;25.50;46.40;;;;;;5036446;28;20355;-75
2022/08/03 07:52:54;;;;;;;4.68;2.47;;;25.40;46.50;;;;;;5053420;28;20111;-74
2022/08/03 07:55:24;;;;;;;6.88;2.60;;;25.30;46.80;;;;;;5035961;28;20037;-74
2022/08/03 07:58:03;;;;;;;6.13;2.60;;;25.50;46.60;;;;;;5050439;28;20029;-75
2022/08/03 08:00:29;;;;;;;5.77;2.70;;;25.40;46.30;;;;;;5053068;28;20432;-75
2022/08/03 08:02:55;;;;;;;5.15;2.50;;;25.50;46.10;;;;;;5054130;28;20079;-74
2022/08/03 08:05:21;;;;;;;5.93;2.75;;;25.60;46.20;;;;;;5053825;28;20389;-75
2022/08/03 08:07:47;;;;;;;6.32;2.75;;;25.50;46.10;;;;;;5053776;28;20017;-75
2022/08/03 08:10:12;;;;;;;7.47;3.10;;;25.50;46.50;;;;;;5052809;28;20036;-74
2022/08/03 08:12:39;;;;;;;8.52;3.25;;;25.40;45.70;;;;;;5052789;28;20033;-75
2022/08/03 08:15:08;;;;;;;11.68;3.67;;;25.40;46.60;;;;;;5053797;28;20029;-75
2022/08/03 08:17:47;;;;;;;12.60;3.40;;;25.50;46.10;;;;;;5053884;28;20147;-74
2022/08/03 08:20:20;;;;;;;9.23;2.85;;;25.50;46.30;;;;;;5053817;28;20393;-75
2022/08/03 08:22:48;;;;;;;7.97;3.50;;;25.50;45.70;;;;;;5035993;28;20182;-75
2022/08/03 08:25:15;;;;;;;11.65;2.70;;;25.60;45.70;;;;;;5053455;28;20056;-76
2022/08/03 08:27:47;;;;;;;8.52;3.05;;;25.70;45.30;;;;;;5052521;28;20033;-75
2022/08/03 08:30:15;;;;;;;8.15;2.85;;;25.50;45.40;;;;;;5054227;28;20492;-75
2022/08/03 08:32:41;;;;;;;9.55;3.17;;;25.60;45.60;;;;;;5062055;28;20032;-75
2022/08/03 08:35:08;;;;;;;9.73;3.38;;;25.50;44.80;;;;;;5053354;28;20021;-75
2022/08/03 08:37:34;;;;;;;8.57;2.70;;;25.50;45.70;;;;;;5059033;28;20040;-75
2022/08/03 08:40:00;;;;;;;8.13;2.85;;;25.50;44.50;;;;;;5062378;28;20112;-75
2022/08/03 08:42:26;;;;;;;7.95;2.80;;;25.50;44.70;;;;;;5052105;28;20104;-75
2022/08/03 08:44:52;;;;;;;4.43;2.45;;;25.60;45.30;;;;;;5049122;28;20049;-76
2022/08/03 08:47:20;;;;;;;12.60;3.13;;;25.90;45.10;;;;;;5035190;28;20496;-76
2022/08/03 08:49:49;;;;;;;7.78;2.63;;;25.90;44.90;;;;;;5051951;28;20461;-76
2022/08/03 08:52:15;;;;;;;4.80;2.05;;;26.10;44.00;;;;;;5063337;28;20384;-76
2022/08/03 08:54:41;;;;;;;5.47;2.30;;;;;;;;;;5055698;28;20032;-75
2022/08/03 08:57:08;;;;;;;7.32;2.33;;;26.20;43.10;;;;;;5071607;28;20056;-76
2022/08/03 08:59:35;;;;;;;5.45;2.00;;;26.00;42.90;;;;;;5073067;28;20497;-76
2022/08/03 09:02:01;;;;;;;7.97;2.55;;;25.80;43.60;;;;;;5070278;28;20151;-75
2022/08/03 09:04:28;;;;;;;5.22;2.30;;;25.80;44.30;;;;;;5046983;28;20509;-76
2022/08/03 09:06:54;;;;;;;7.40;2.55;;;26.10;44.00;;;;;;5058876;28;20020;-75
2022/08/03 09:09:19;;;;;;;12.95;2.30;;;26.40;43.50;;;;;;5026964;28;20119;-75
2022/08/03 09:11:47;;;;;;;10.20;4.78;;;26.60;42.90;;;;;;5053066;28;20037;-75
2022/08/03 09:14:13;;;;;;;7.35;3.05;;;26.60;44.30;;;;;;5067728;28;20032;-75
2022/08/03 09:16:58;;;;;;;10.38;2.78;;;26.30;43.70;;;;;;5051601;28;20117;-76
2022/08/03 09:19:23;;;;;;;13.77;3.58;;;26.20;43.60;;;;;;5061009;28;20081;-75
2022/08/03 09:22:09;;;;;;;7.28;2.38;;;26.10;49.80;;;;;;5071292;28;20028;-76
2022/08/03 09:24:36;;;;;;;5.78;2.40;;;26.20;46.70;;;;;;5060390;28;20036;-75
2022/08/03 09:27:06;;;;;;;4.20;2.10;;;26.40;45.50;;;;;;5052977;28;20098;-76
2022/08/03 09:29:32;;;;;;;3.42;2.03;;;26.60;44.10;;;;;;5049850;28;20560;-75
2022/08/03 09:32:01;;;;;;;6.32;2.33;;;26.70;44.10;;;;;;5049915;28;20496;-76
2022/08/03 09:34:27;;;;;;;9.43;2.47;;;26.70;44.70;;;;;;5025510;28;20043;-76
2022/08/03 09:36:54;;;;;;;9.95;3.25;;;26.70;45.50;;;;;;5059935;28;20033;-75
2022/08/03 09:39:23;;;;;;;10.98;2.53;;;26.60;49.30;;;;;;5063131;28;20499;-75
2022/08/03 09:42:09;;;;;;;11.98;2.78;;;26.60;46.70;;;;;;5052036;28;20028;-75
2022/08/03 09:44:37;;;;;;;6.85;2.28;;;26.40;49.50;;;;;;5058459;28;20458;-75
2022/08/03 09:47:04;;;;;;;5.40;1.92;;;26.40;49.70;;;;;;5058682;28;20048;-76
2022/08/03 09:49:31;;;;;;;11.43;2.38;;;26.40;46.50;;;;;;5033669;28;20032;-76
2022/08/03 09:52:00;;;;;;;6.00;2.42;;;26.40;46.30;;;;;;5056311;28;20335;-75
2022/08/03 09:54:31;;;;;;;8.40;2.85;;;26.40;46.50;;;;;;5061762;28;20027;-76
2022/08/03 09:56:57;;;;;;;7.10;3.05;;;26.40;45.50;;;;;;5054935;28;20036;-76
2022/08/03 09:59:25;;;;;;;8.82;3.20;;;26.50;45.10;;;;;;5033476;28;20032;-76
2022/08/03 10:01:51;;;;;;;6.78;2.88;;;26.70;44.20;;;;;;5060551;28;20028;-76
2022/08/03 10:04:17;;;;;;;7.18;3.03;;;26.70;44.10;;;;;;5070442;28;20105;-76
2022/08/03 10:07:09;;;;;;;5.10;2.53;;;26.70;43.20;;;;;;5050208;28;20120;-76
2022/08/03 10:09:36;;;;;;;6.07;2.38;;;26.70;43.00;;;;;;5033971;28;20494;-76
2022/08/03 10:12:09;;;;;;;7.93;2.35;;;26.80;43.30;;;;;;5036733;28;20032;-77
2022/08/03 10:14:40;;;;;;;6.97;2.67;;;;;;;;;;5060189;28;20516;-77
2022/08/03 10:17:08;;;;;;;6.65;2.78;;;26.80;42.30;;;;;;5050087;28;20036;-77
2022/08/03 10:19:33;;;;;;;3.42;1.85;;;26.60;43.80;;;;;;5051072;28;20029;-77
2022/08/03 10:22:25;;;;;;;6.57;2.95;;;26.40;43.00;;;;;;5050252;28;20033;-76
2022/08/03 10:25:05;;;;;;;7.38;2.40;;;26.40;42.90;;;;;;5046726;28;20036;-76
2022/08/03 10:27:33;;;;;;;4.07;2.28;;;26.30;43.30;;;;;;5051634;28;20017;-76
2022/08/03 10:30:05;;;;;;;3.90;1.95;;;26.40;43.10;;;;;;5050237;28;20028;-76
2022/08/03 10:32:45;;;;;;;3.97;1.50;;;26.40;42.10;;;;;;5051365;28;20033;-76
2022/08/03 10:35:16;;;;;;;4.57;1.80;;;26.40;41.80;;;;;;5057445;28;20025;-76
2022/08/03 10:37:54;;;;;;;3.97;2.38;;;26.30;42.30;;;;;;5066571;28;20029;-76
2022/08/03 10:40:22;;;;;;;4.35;2.63;;;26.40;43.10;;;;;;5059512;28;20029;-76
2022/08/03 10:42:51;;;;;;;3.42;2.08;;;26.50;43.00;;;;;;5051150;28;20032;-76
2022/08/03 10:45:24;;;;;;;4.60;1.90;;;26.50;42.30;;;;;;5050890;28;20090;-76
2022/08/03 10:47:52;;;;;;;4.85;2.63;;;26.40;42.40;;;;;;5051194;28;20021;-77
2022/08/03 10:50:19;;;;;;;6.57;2.67;;;26.40;43.50;;;;;;5051382;28;20477;-77
2022/08/03 10:53:00;;;;;;;2.97;2.05;;;26.70;43.40;;;;;;5050948;28;20036;-75
2022/08/03 10:58:36;;;;;;;14.20;7.40;;;26.60;43.40;;;;;;5052007;28;20025;-77
2022/08/03 11:01:06;;;;;;;37.22;26.90;;;26.70;43.10;;;;;;5061395;28;20113;-77
2022/08/03 11:03:32;;;;;;;20.63;12.50;;;26.80;42.90;;;;;;5061473;28;20388;-78
2022/08/03 11:06:19;;;;;;;12.73;7.20;;;26.70;43.00;;;;;;5062529;28;20025;-76
2022/08/03 11:08:46;;;;;;;17.40;5.80;;;26.80;42.70;;;;;;5052431;28;20040;-75
2022/08/03 11:11:17;;;;;;;9.02;4.20;;;26.80;42.80;;;;;;5057581;28;20792;-76
2022/08/03 11:14:09;;;;;;;5.30;2.20;;;26.80;42.70;;;;;;5037955;28;20036;-76
2022/08/03 11:16:39;;;;;;;6.05;2.78;;;26.80;41.30;;;;;;5053253;28;20028;-76
2022/08/03 11:19:09;;;;;;;;;;;26.80;42.20;;;;;;5068069;22;20048;-69
2022/08/03 11:21:47;;;;;;;8.02;2.17;;;26.80;41.70;;;;;;5035085;28;19916;-69
2022/08/03 11:24:35;;;;;;;3.42;1.60;;;26.80;42.50;;;;;;5019050;28;20037;-69
2022/08/03 11:27:13;;;;;;;4.38;1.90;;;26.80;41.40;;;;;;5033364;28;20051;-70
2022/08/03 11:29:57;;;;;;;6.43;1.92;;;26.80;42.30;;;;;;5034823;28;20489;-69
2022/08/03 11:32:46;;;;;;;3.95;1.70;;;26.70;42.40;;;;;;5036564;28;20060;-70
2022/08/03 11:35:30;;;;;;;4.97;1.52;;;26.80;41.40;;;;;;5073761;28;20393;-70
2022/08/03 11:37:56;;;;;;;3.90;1.45;;;26.80;41.80;;;;;;5048878;28;20768;-69
2022/08/03 11:40:47;;;;;;;2.88;1.48;;;26.80;41.10;;;;;;5053969;28;20111;-69
2022/08/03 11:43:22;;;;;;;3.33;1.73;;;27.00;41.00;;;;;;5068977;28;20028;-70
2022/08/03 11:45:58;;;;;;;5.50;1.85;;;27.00;42.10;;;;;;5049763;28;20036;-68
2022/08/03 11:48:32;;;;;;;4.13;1.48;;;27.00;41.60;;;;;;5045536;28;20421;-74
2022/08/03 11:51:02;;;;;;;3.85;1.75;;;27.10;41.50;;;;;;5052888;28;20036;-71
2022/08/03 11:53:28;;;;;;;11.07;2.00;;;26.90;42.20;;;;;;5048035;28;20021;-72
2022/08/03 11:55:58;;;;;;;5.50;2.13;;;27.00;43.20;;;;;;5060934;28;20095;-72
2022/08/03 11:58:24;;;;;;;4.45;1.63;;;27.00;42.60;;;;;;5047514;28;20355;-72
2022/08/03 12:00:50;;;;;;;4.80;1.75;;;27.00;42.00;;;;;;5042967;28;20037;-71
2022/08/03 12:03:18;;;;;;;5.20;1.70;;;27.00;43.00;;;;;;5051770;28;20378;-72
2022/08/03 12:05:50;;;;;;;2.45;1.42;;;27.10;42.50;;;;;;5048445;28;20498;-72
2022/08/03 12:08:26;;;;;;;3.65;1.50;;;27.10;41.20;;;;;;5053193;28;20024;-72
2022/08/03 12:10:54;;;;;;;11.65;1.95;;;27.10;41.80;;;;;;5046758;28;20033;-73
2022/08/03 12:13:20;;;;;;;3.05;1.63;;;27.10;41.40;;;;;;5050106;28;20025;-73
2022/08/03 12:15:51;;;;;;;4.50;1.75;;;27.10;41.20;;;;;;5051916;28;20127;-72
2022/08/03 12:18:19;;;;;;;4.63;2.13;;;27.00;41.60;;;;;;5053172;28;20489;-72
2022/08/03 12:20:45;;;;;;;3.10;1.50;;;27.00;42.50;;;;;;5060708;28;20036;-73
2022/08/03 12:23:12;;;;;;;2.88;1.63;;;27.00;41.90;;;;;;5029247;28;20094;-73
2022/08/03 12:25:40;;;;;;;6.55;1.95;;;27.00;42.20;;;;;;5050510;28;20029;-72
2022/08/03 12:28:08;;;;;;;3.20;1.80;;;27.10;42.30;;;;;;5052943;28;20232;-73
2022/08/03 12:30:35;;;;;;;5.53;1.50;;;27.30;42.20;;;;;;5035812;28;20040;-72
2022/08/03 12:33:15;;;;;;;4.88;1.40;;;27.30;41.60;;;;;;5053208;28;20485;-73
2022/08/03 12:35:41;;;;;;;4.50;1.48;;;27.30;41.20;;;;;;5052764;28;20543;-73
2022/08/03 12:38:07;;;;;;;3.80;1.40;;;27.30;41.20;;;;;;5055039;28;20043;-72
2022/08/03 12:40:32;;;;;;;3.90;1.52;;;27.30;42.50;;;;;;5073295;28;20311;-73
2022/08/03 12:42:58;;;;;;;5.38;1.80;;;27.30;41.90;;;;;;5072818;28;20025;-72
2022/08/03 12:45:27;;;;;;;7.63;1.67;;;27.30;42.20;;;;;;5054699;28;20111;-72
2022/08/03 12:48:00;;;;;;;4.78;1.70;;;27.30;41.40;;;;;;5060156;28;20028;-72
2022/08/03 12:50:27;;;;;;;4.68;1.90;;;27.30;41.20;;;;;;5052413;28;20020;-72
2022/08/03 12:52:53;;;;;;;4.63;1.55;;;27.20;42.20;;;;;;5047987;28;20076;-72
2022/08/03 12:55:21;;;;;;;7.90;2.65;;;27.20;42.80;;;;;;5040421;28;20032;-72
2022/08/03 12:57:47;;;;;;;5.15;2.30;;;27.30;42.30;;;;;;5043102;28;20029;-72
2022/08/03 13:00:14;;;;;;;3.95;1.42;;;;;;;;;;5052549;28;20540;-72
2022/08/03 13:02:40;;;;;;;6.78;2.10;;;27.50;41.50;;;;;;5051072;28;20124;-72
2022/08/03 13:05:10;;;;;;;4.95;1.70;;;;;;;;;;5042259;28;20111;-71